Smartville, California
Current Conditions -  °F | °C
As of 5:58 PM on Monday 24 Nov 2014 (Local Time) from KBAB Reporting Station
Clear Clear  
Wind Chill: 11°   Ceiling: Unl
Heat Index: 11°   Visibility: 10mi
Dew Point:   Wind: 3mph
Humidity: 67%   Direction: 60°ENE
Pressure: 30.35"   Gusts: NA
Location:  39.21°N, 121.3°W
Report Text: KBAB 250158Z 06003KT 10SM CLR 11/05 A3035 RMK AO2A SLP356 $
Loading
Personal Weather Stations






























Interactive Weather Map New forecast layout! Learn more

10-Day Weather Forecast

Advertisements
Track Severe Weather on mobile